KAWM/AWM METAR and TAF weather

Enter ICAO airport designator
Station Type Date Time Source
KAWM METAR 2018/01/16 08:53 UTC NOAA

KAWM 160853Z AUTO 01013KT 1 1/4SM -SN BR OVC017 M08/M09 A3060 RMK AO2 SLP364 P0000 60001 T10781089 51020 TSNO $


Station Type Date Time Source
KAWM Decoded METAR 2018/01/16 08:53 UTC NOAA

WEST MEMPHIS MUNICIPAL AIRPORT, AR, United States (KAWM) 35-08N 090-14W
Jan 16, 2018 - 03:53 AM EST / 2018.01.16 0853 UTC
Wind: from the N (010 degrees) at 15 MPH (13 KT):0
Visibility: 1 1/4 mile(s):0
Sky conditions: overcast
Weather: light snow; mist
Precipitation last hour: A trace
Temperature: 18.0 F (-7.8 C)
Windchill: 3 F (-16 C):1
Dew Point: 16.0 F (-8.9 C)
Relative Humidity: 91%
Pressure (altimeter): 30.6 in. Hg (1036 hPa)
Pressure tendency: 0.06 inches (2.0 hPa) higher than three hours ago
ob: KAWM 160853Z AUTO 01013KT 1 1/4SM -SN BR OVC017 M08/M09 A3060 RMK AO2 SLP364 P0000 60001 T10781089 51020 TSNO
cycle: 9

Station Type Date Time Source
KAWM TAF UTC NOAA

Error!


Example: see airport list